sensor_id;sensor_type;location;lat;lon;timestamp;P1;durP1;ratioP1;P2;durP2;ratioP2
17151;SDS011;8691;50.828;4.700;2023-07-31T00:01:49;8.25;;;3.60;;
17151;SDS011;8691;50.828;4.700;2023-07-31T00:04:16;6.40;;;3.40;;
17151;SDS011;8691;50.828;4.700;2023-07-31T00:06:43;10.38;;;3.62;;
17151;SDS011;8691;50.828;4.700;2023-07-31T00:09:10;8.53;;;3.70;;
17151;SDS011;8691;50.828;4.700;2023-07-31T00:11:38;9.17;;;4.00;;
17151;SDS011;8691;50.828;4.700;2023-07-31T00:14:04;7.07;;;3.60;;
17151;SDS011;8691;50.828;4.700;2023-07-31T00:16:31;8.23;;;4.00;;
17151;SDS011;8691;50.828;4.700;2023-07-31T00:18:58;8.32;;;3.80;;
17151;SDS011;8691;50.828;4.700;2023-07-31T00:21:26;9.85;;;3.90;;
17151;SDS011;8691;50.828;4.700;2023-07-31T00:23:52;9.33;;;3.80;;
17151;SDS011;8691;50.828;4.700;2023-07-31T00:26:20;9.23;;;3.70;;
17151;SDS011;8691;50.828;4.700;2023-07-31T00:28:47;9.30;;;4.00;;
17151;SDS011;8691;50.828;4.700;2023-07-31T00:31:14;8.90;;;3.83;;
17151;SDS011;8691;50.828;4.700;2023-07-31T00:33:41;9.60;;;3.47;;
17151;SDS011;8691;50.828;4.700;2023-07-31T00:36:08;10.73;;;4.03;;
17151;SDS011;8691;50.828;4.700;2023-07-31T00:38:35;8.43;;;3.95;;
17151;SDS011;8691;50.828;4.700;2023-07-31T00:41:02;7.83;;;3.63;;
17151;SDS011;8691;50.828;4.700;2023-07-31T00:43:29;8.80;;;3.60;;
17151;SDS011;8691;50.828;4.700;2023-07-31T00:45:56;9.30;;;3.70;;
17151;SDS011;8691;50.828;4.700;2023-07-31T00:48:22;8.35;;;3.50;;
17151;SDS011;8691;50.828;4.700;2023-07-31T00:50:49;8.32;;;3.95;;
17151;SDS011;8691;50.828;4.700;2023-07-31T00:53:16;8.20;;;3.37;;
17151;SDS011;8691;50.828;4.700;2023-07-31T00:55:43;7.80;;;3.67;;
17151;SDS011;8691;50.828;4.700;2023-07-31T00:58:10;8.57;;;3.90;;
17151;SDS011;8691;50.828;4.700;2023-07-31T01:00:37;7.47;;;3.23;;
17151;SDS011;8691;50.828;4.700;2023-07-31T01:03:04;8.35;;;3.67;;
17151;SDS011;8691;50.828;4.700;2023-07-31T01:05:33;7.10;;;3.30;;
17151;SDS011;8691;50.828;4.700;2023-07-31T01:10:37;9.18;;;3.90;;
17151;SDS011;8691;50.828;4.700;2023-07-31T01:13:02;10.63;;;3.30;;
17151;SDS011;8691;50.828;4.700;2023-07-31T01:15:29;11.25;;;4.07;;
17151;SDS011;8691;50.828;4.700;2023-07-31T01:17:55;6.83;;;3.53;;
17151;SDS011;8691;50.828;4.700;2023-07-31T01:20:23;9.60;;;3.67;;
17151;SDS011;8691;50.828;4.700;2023-07-31T01:25:53;8.98;;;3.85;;
17151;SDS011;8691;50.828;4.700;2023-07-31T01:31:14;8.98;;;3.72;;
17151;SDS011;8691;50.828;4.700;2023-07-31T01:33:40;7.72;;;4.10;;
17151;SDS011;8691;50.828;4.700;2023-07-31T01:36:06;8.97;;;3.13;;
17151;SDS011;8691;50.828;4.700;2023-07-31T01:38:33;7.55;;;3.67;;
17151;SDS011;8691;50.828;4.700;2023-07-31T01:41:00;6.80;;;3.20;;
17151;SDS011;8691;50.828;4.700;2023-07-31T01:43:27;9.18;;;3.80;;
17151;SDS011;8691;50.828;4.700;2023-07-31T01:45:53;7.10;;;3.70;;
17151;SDS011;8691;50.828;4.700;2023-07-31T01:48:20;8.20;;;3.80;;
17151;SDS011;8691;50.828;4.700;2023-07-31T01:50:47;6.10;;;3.37;;
17151;SDS011;8691;50.828;4.700;2023-07-31T01:53:14;9.10;;;3.80;;
17151;SDS011;8691;50.828;4.700;2023-07-31T01:55:41;8.18;;;3.70;;
17151;SDS011;8691;50.828;4.700;2023-07-31T01:58:09;9.67;;;3.77;;
17151;SDS011;8691;50.828;4.700;2023-07-31T02:00:35;7.63;;;3.63;;
17151;SDS011;8691;50.828;4.700;2023-07-31T02:03:02;7.55;;;3.92;;
17151;SDS011;8691;50.828;4.700;2023-07-31T02:05:29;10.95;;;4.00;;
17151;SDS011;8691;50.828;4.700;2023-07-31T02:07:56;9.48;;;3.72;;
17151;SDS011;8691;50.828;4.700;2023-07-31T02:10:23;8.75;;;3.75;;
17151;SDS011;8691;50.828;4.700;2023-07-31T02:12:49;9.07;;;4.25;;
17151;SDS011;8691;50.828;4.700;2023-07-31T02:15:16;6.70;;;3.70;;
17151;SDS011;8691;50.828;4.700;2023-07-31T02:17:43;7.72;;;3.55;;
17151;SDS011;8691;50.828;4.700;2023-07-31T02:20:10;8.87;;;3.97;;
17151;SDS011;8691;50.828;4.700;2023-07-31T02:22:37;9.02;;;4.20;;
17151;SDS011;8691;50.828;4.700;2023-07-31T02:25:04;8.80;;;4.30;;
17151;SDS011;8691;50.828;4.700;2023-07-31T02:27:31;7.03;;;3.58;;
17151;SDS011;8691;50.828;4.700;2023-07-31T02:29:58;10.30;;;3.75;;
17151;SDS011;8691;50.828;4.700;2023-07-31T02:32:25;6.45;;;3.70;;
17151;SDS011;8691;50.828;4.700;2023-07-31T02:34:52;7.20;;;3.70;;
17151;SDS011;8691;50.828;4.700;2023-07-31T02:37:19;7.40;;;3.78;;
17151;SDS011;8691;50.828;4.700;2023-07-31T02:39:46;8.25;;;3.67;;
17151;SDS011;8691;50.828;4.700;2023-07-31T02:42:14;5.80;;;3.78;;
17151;SDS011;8691;50.828;4.700;2023-07-31T02:44:40;9.67;;;4.33;;
17151;SDS011;8691;50.828;4.700;2023-07-31T02:47:07;7.97;;;3.78;;
17151;SDS011;8691;50.828;4.700;2023-07-31T02:49:34;6.65;;;3.70;;
17151;SDS011;8691;50.828;4.700;2023-07-31T02:52:02;9.88;;;3.78;;
17151;SDS011;8691;50.828;4.700;2023-07-31T02:54:29;4.67;;;2.90;;
17151;SDS011;8691;50.828;4.700;2023-07-31T02:56:56;6.50;;;3.75;;
17151;SDS011;8691;50.828;4.700;2023-07-31T02:59:23;7.20;;;3.60;;
17151;SDS011;8691;50.828;4.700;2023-07-31T03:01:50;5.78;;;3.62;;
17151;SDS011;8691;50.828;4.700;2023-07-31T03:04:16;6.25;;;3.67;;
17151;SDS011;8691;50.828;4.700;2023-07-31T03:06:43;7.73;;;3.23;;
17151;SDS011;8691;50.828;4.700;2023-07-31T03:09:10;5.18;;;3.28;;
17151;SDS011;8691;50.828;4.700;2023-07-31T03:11:37;6.97;;;3.50;;
17151;SDS011;8691;50.828;4.700;2023-07-31T03:14:04;6.37;;;3.70;;
17151;SDS011;8691;50.828;4.700;2023-07-31T03:16:31;5.40;;;3.40;;
17151;SDS011;8691;50.828;4.700;2023-07-31T03:18:58;5.20;;;3.45;;
17151;SDS011;8691;50.828;4.700;2023-07-31T03:21:25;6.37;;;3.20;;
17151;SDS011;8691;50.828;4.700;2023-07-31T03:23:52;6.13;;;3.47;;
17151;SDS011;8691;50.828;4.700;2023-07-31T03:26:19;7.07;;;3.33;;
17151;SDS011;8691;50.828;4.700;2023-07-31T03:28:45;4.35;;;2.97;;
17151;SDS011;8691;50.828;4.700;2023-07-31T03:31:12;5.47;;;3.15;;
17151;SDS011;8691;50.828;4.700;2023-07-31T03:33:39;4.50;;;3.00;;
17151;SDS011;8691;50.828;4.700;2023-07-31T03:36:06;4.73;;;3.30;;
17151;SDS011;8691;50.828;4.700;2023-07-31T03:38:34;5.18;;;3.12;;
17151;SDS011;8691;50.828;4.700;2023-07-31T03:41:01;5.40;;;3.12;;
17151;SDS011;8691;50.828;4.700;2023-07-31T03:43:27;5.07;;;2.60;;
17151;SDS011;8691;50.828;4.700;2023-07-31T03:45:55;5.72;;;3.47;;
17151;SDS011;8691;50.828;4.700;2023-07-31T03:48:22;4.90;;;3.27;;
17151;SDS011;8691;50.828;4.700;2023-07-31T03:50:50;4.23;;;2.53;;
17151;SDS011;8691;50.828;4.700;2023-07-31T03:53:17;6.07;;;3.53;;
17151;SDS011;8691;50.828;4.700;2023-07-31T03:55:44;4.57;;;3.00;;
17151;SDS011;8691;50.828;4.700;2023-07-31T03:58:11;4.43;;;2.80;;
17151;SDS011;8691;50.828;4.700;2023-07-31T04:00:39;5.57;;;3.20;;
17151;SDS011;8691;50.828;4.700;2023-07-31T04:03:05;6.70;;;2.70;;
17151;SDS011;8691;50.828;4.700;2023-07-31T04:05:32;3.83;;;2.90;;
17151;SDS011;8691;50.828;4.700;2023-07-31T04:07:58;5.13;;;2.60;;
17151;SDS011;8691;50.828;4.700;2023-07-31T04:10:25;4.82;;;3.00;;
17151;SDS011;8691;50.828;4.700;2023-07-31T04:12:52;4.20;;;2.50;;
17151;SDS011;8691;50.828;4.700;2023-07-31T04:15:18;5.22;;;3.10;;
17151;SDS011;8691;50.828;4.700;2023-07-31T04:17:45;5.03;;;3.15;;
17151;SDS011;8691;50.828;4.700;2023-07-31T04:20:13;5.65;;;3.22;;
17151;SDS011;8691;50.828;4.700;2023-07-31T04:22:40;5.72;;;3.40;;
17151;SDS011;8691;50.828;4.700;2023-07-31T04:25:08;5.38;;;3.10;;
17151;SDS011;8691;50.828;4.700;2023-07-31T04:27:35;6.47;;;3.20;;
17151;SDS011;8691;50.828;4.700;2023-07-31T04:30:02;4.72;;;3.00;;
17151;SDS011;8691;50.828;4.700;2023-07-31T04:32:29;5.80;;;3.10;;
17151;SDS011;8691;50.828;4.700;2023-07-31T04:34:56;5.70;;;3.10;;
17151;SDS011;8691;50.828;4.700;2023-07-31T04:37:23;5.93;;;3.27;;
17151;SDS011;8691;50.828;4.700;2023-07-31T04:39:50;5.28;;;3.28;;
17151;SDS011;8691;50.828;4.700;2023-07-31T04:42:17;4.90;;;3.00;;
17151;SDS011;8691;50.828;4.700;2023-07-31T04:44:44;4.00;;;2.85;;
17151;SDS011;8691;50.828;4.700;2023-07-31T04:47:11;6.00;;;3.03;;
17151;SDS011;8691;50.828;4.700;2023-07-31T04:49:38;5.68;;;3.30;;
17151;SDS011;8691;50.828;4.700;2023-07-31T04:52:05;4.67;;;2.27;;
17151;SDS011;8691;50.828;4.700;2023-07-31T04:54:32;5.62;;;3.05;;
17151;SDS011;8691;50.828;4.700;2023-07-31T04:56:59;5.87;;;3.00;;
17151;SDS011;8691;50.828;4.700;2023-07-31T04:59:27;4.93;;;2.93;;
17151;SDS011;8691;50.828;4.700;2023-07-31T05:01:54;4.32;;;2.78;;
17151;SDS011;8691;50.828;4.700;2023-07-31T05:04:20;4.43;;;2.92;;
17151;SDS011;8691;50.828;4.700;2023-07-31T05:06:47;6.07;;;3.07;;
17151;SDS011;8691;50.828;4.700;2023-07-31T05:09:14;5.73;;;2.83;;
17151;SDS011;8691;50.828;4.700;2023-07-31T05:11:42;7.38;;;2.95;;
17151;SDS011;8691;50.828;4.700;2023-07-31T05:14:09;5.12;;;2.80;;
17151;SDS011;8691;50.828;4.700;2023-07-31T05:16:36;4.23;;;2.97;;
17151;SDS011;8691;50.828;4.700;2023-07-31T05:19:02;5.47;;;3.20;;
17151;SDS011;8691;50.828;4.700;2023-07-31T05:21:29;4.97;;;2.85;;
17151;SDS011;8691;50.828;4.700;2023-07-31T05:23:56;5.62;;;3.15;;
17151;SDS011;8691;50.828;4.700;2023-07-31T05:26:23;5.00;;;2.97;;
17151;SDS011;8691;50.828;4.700;2023-07-31T05:28:50;4.07;;;2.70;;
17151;SDS011;8691;50.828;4.700;2023-07-31T05:31:17;4.93;;;3.00;;
17151;SDS011;8691;50.828;4.700;2023-07-31T05:33:44;4.87;;;2.73;;
17151;SDS011;8691;50.828;4.700;2023-07-31T05:36:12;5.18;;;2.70;;
17151;SDS011;8691;50.828;4.700;2023-07-31T05:38:39;5.90;;;2.93;;
17151;SDS011;8691;50.828;4.700;2023-07-31T05:41:06;3.88;;;2.97;;
17151;SDS011;8691;50.828;4.700;2023-07-31T05:43:33;6.07;;;2.72;;
17151;SDS011;8691;50.828;4.700;2023-07-31T05:46:00;4.97;;;2.85;;
17151;SDS011;8691;50.828;4.700;2023-07-31T05:48:27;5.10;;;2.50;;
17151;SDS011;8691;50.828;4.700;2023-07-31T05:50:54;4.35;;;2.80;;
17151;SDS011;8691;50.828;4.700;2023-07-31T05:53:22;5.43;;;2.67;;
17151;SDS011;8691;50.828;4.700;2023-07-31T05:55:48;3.80;;;2.65;;
17151;SDS011;8691;50.828;4.700;2023-07-31T05:58:15;4.53;;;2.63;;
17151;SDS011;8691;50.828;4.700;2023-07-31T06:00:42;5.55;;;3.03;;
17151;SDS011;8691;50.828;4.700;2023-07-31T06:03:09;4.33;;;2.67;;
17151;SDS011;8691;50.828;4.700;2023-07-31T06:05:35;4.53;;;2.47;;
17151;SDS011;8691;50.828;4.700;2023-07-31T06:08:02;6.68;;;2.80;;
17151;SDS011;8691;50.828;4.700;2023-07-31T06:10:29;5.15;;;2.85;;
17151;SDS011;8691;50.828;4.700;2023-07-31T06:12:57;4.83;;;2.60;;
17151;SDS011;8691;50.828;4.700;2023-07-31T06:15:24;4.50;;;2.57;;
17151;SDS011;8691;50.828;4.700;2023-07-31T06:17:50;4.83;;;2.47;;
17151;SDS011;8691;50.828;4.700;2023-07-31T06:20:17;4.53;;;3.00;;
17151;SDS011;8691;50.828;4.700;2023-07-31T06:22:44;4.05;;;2.58;;
17151;SDS011;8691;50.828;4.700;2023-07-31T06:25:12;4.73;;;3.03;;
17151;SDS011;8691;50.828;4.700;2023-07-31T06:27:39;5.70;;;3.17;;
17151;SDS011;8691;50.828;4.700;2023-07-31T06:30:06;4.82;;;2.88;;
17151;SDS011;8691;50.828;4.700;2023-07-31T06:32:32;6.03;;;2.33;;
17151;SDS011;8691;50.828;4.700;2023-07-31T06:34:59;4.45;;;2.47;;
17151;SDS011;8691;50.828;4.700;2023-07-31T06:37:26;3.73;;;2.40;;
17151;SDS011;8691;50.828;4.700;2023-07-31T06:39:53;4.62;;;2.60;;
17151;SDS011;8691;50.828;4.700;2023-07-31T06:42:20;5.55;;;2.95;;
17151;SDS011;8691;50.828;4.700;2023-07-31T06:44:47;6.67;;;3.10;;
17151;SDS011;8691;50.828;4.700;2023-07-31T06:47:14;6.37;;;2.90;;
17151;SDS011;8691;50.828;4.700;2023-07-31T06:49:41;5.50;;;2.90;;
17151;SDS011;8691;50.828;4.700;2023-07-31T06:52:08;5.47;;;2.70;;
17151;SDS011;8691;50.828;4.700;2023-07-31T06:54:35;5.65;;;2.80;;
17151;SDS011;8691;50.828;4.700;2023-07-31T06:57:01;3.95;;;2.25;;
17151;SDS011;8691;50.828;4.700;2023-07-31T06:59:28;4.62;;;2.45;;
17151;SDS011;8691;50.828;4.700;2023-07-31T07:01:55;3.95;;;2.72;;
17151;SDS011;8691;50.828;4.700;2023-07-31T07:04:22;3.93;;;2.00;;
17151;SDS011;8691;50.828;4.700;2023-07-31T07:06:49;5.50;;;3.10;;
17151;SDS011;8691;50.828;4.700;2023-07-31T07:09:16;5.20;;;2.55;;
17151;SDS011;8691;50.828;4.700;2023-07-31T07:11:43;5.40;;;2.80;;
17151;SDS011;8691;50.828;4.700;2023-07-31T07:14:10;5.93;;;2.70;;
17151;SDS011;8691;50.828;4.700;2023-07-31T07:16:37;4.10;;;2.60;;
17151;SDS011;8691;50.828;4.700;2023-07-31T07:19:04;3.53;;;2.35;;
17151;SDS011;8691;50.828;4.700;2023-07-31T07:21:31;5.07;;;2.70;;
17151;SDS011;8691;50.828;4.700;2023-07-31T07:23:58;4.30;;;2.37;;
17151;SDS011;8691;50.828;4.700;2023-07-31T07:26:25;4.70;;;2.23;;
17151;SDS011;8691;50.828;4.700;2023-07-31T07:28:51;4.05;;;2.42;;
17151;SDS011;8691;50.828;4.700;2023-07-31T07:31:18;3.60;;;2.40;;
17151;SDS011;8691;50.828;4.700;2023-07-31T07:33:46;5.63;;;2.60;;
17151;SDS011;8691;50.828;4.700;2023-07-31T07:36:13;4.78;;;2.50;;
17151;SDS011;8691;50.828;4.700;2023-07-31T07:38:40;4.55;;;2.40;;
17151;SDS011;8691;50.828;4.700;2023-07-31T07:41:07;4.67;;;2.47;;
17151;SDS011;8691;50.828;4.700;2023-07-31T07:43:34;6.57;;;2.62;;
17151;SDS011;8691;50.828;4.700;2023-07-31T07:46:01;4.32;;;2.38;;
17151;SDS011;8691;50.828;4.700;2023-07-31T07:48:27;3.83;;;1.93;;
17151;SDS011;8691;50.828;4.700;2023-07-31T07:50:54;4.88;;;2.40;;
17151;SDS011;8691;50.828;4.700;2023-07-31T07:53:22;4.72;;;2.40;;
17151;SDS011;8691;50.828;4.700;2023-07-31T07:55:49;3.90;;;2.20;;
17151;SDS011;8691;50.828;4.700;2023-07-31T07:58:15;3.73;;;1.83;;
17151;SDS011;8691;50.828;4.700;2023-07-31T08:00:47;5.45;;;2.92;;
17151;SDS011;8691;50.828;4.700;2023-07-31T08:03:09;4.40;;;2.35;;
17151;SDS011;8691;50.828;4.700;2023-07-31T08:05:37;5.53;;;2.60;;
17151;SDS011;8691;50.828;4.700;2023-07-31T08:08:04;3.43;;;2.03;;
17151;SDS011;8691;50.828;4.700;2023-07-31T08:10:31;5.38;;;2.58;;
17151;SDS011;8691;50.828;4.700;2023-07-31T08:12:58;4.15;;;2.30;;
17151;SDS011;8691;50.828;4.700;2023-07-31T08:15:26;5.33;;;2.50;;
17151;SDS011;8691;50.828;4.700;2023-07-31T08:17:52;5.43;;;4.67;;
17151;SDS011;8691;50.828;4.700;2023-07-31T08:20:19;4.62;;;2.40;;
17151;SDS011;8691;50.828;4.700;2023-07-31T08:22:46;4.20;;;1.90;;
17151;SDS011;8691;50.828;4.700;2023-07-31T08:25:13;2.77;;;2.23;;
17151;SDS011;8691;50.828;4.700;2023-07-31T08:27:42;3.70;;;2.40;;
17151;SDS011;8691;50.828;4.700;2023-07-31T08:30:06;4.30;;;2.40;;
17151;SDS011;8691;50.828;4.700;2023-07-31T08:32:33;5.12;;;2.60;;
17151;SDS011;8691;50.828;4.700;2023-07-31T08:35:00;3.65;;;2.30;;
17151;SDS011;8691;50.828;4.700;2023-07-31T08:37:27;4.67;;;2.17;;
17151;SDS011;8691;50.828;4.700;2023-07-31T08:39:54;3.85;;;2.30;;
17151;SDS011;8691;50.828;4.700;2023-07-31T08:42:21;4.25;;;2.35;;
17151;SDS011;8691;50.828;4.700;2023-07-31T08:44:47;3.30;;;2.28;;
17151;SDS011;8691;50.828;4.700;2023-07-31T08:47:14;5.20;;;2.45;;
17151;SDS011;8691;50.828;4.700;2023-07-31T08:49:41;4.53;;;2.20;;
17151;SDS011;8691;50.828;4.700;2023-07-31T08:52:08;3.33;;;2.25;;
17151;SDS011;8691;50.828;4.700;2023-07-31T08:54:35;3.20;;;1.90;;
17151;SDS011;8691;50.828;4.700;2023-07-31T08:57:02;2.67;;;1.73;;
17151;SDS011;8691;50.828;4.700;2023-07-31T08:59:29;4.20;;;2.10;;
17151;SDS011;8691;50.828;4.700;2023-07-31T09:01:56;4.70;;;2.10;;
17151;SDS011;8691;50.828;4.700;2023-07-31T09:04:23;3.15;;;2.00;;
17151;SDS011;8691;50.828;4.700;2023-07-31T09:06:50;3.85;;;1.98;;
17151;SDS011;8691;50.828;4.700;2023-07-31T09:09:17;3.87;;;1.90;;
17151;SDS011;8691;50.828;4.700;2023-07-31T09:11:43;1.80;;;1.50;;
17151;SDS011;8691;50.828;4.700;2023-07-31T09:14:10;3.53;;;2.28;;
17151;SDS011;8691;50.828;4.700;2023-07-31T09:16:50;4.55;;;2.10;;
17151;SDS011;8691;50.828;4.700;2023-07-31T09:19:04;4.50;;;2.10;;
17151;SDS011;8691;50.828;4.700;2023-07-31T09:21:31;5.62;;;3.40;;
17151;SDS011;8691;50.828;4.700;2023-07-31T09:23:58;3.42;;;2.00;;
17151;SDS011;8691;50.828;4.700;2023-07-31T09:26:35;4.03;;;2.13;;
17151;SDS011;8691;50.828;4.700;2023-07-31T09:29:01;3.63;;;2.00;;
17151;SDS011;8691;50.828;4.700;2023-07-31T09:31:38;2.62;;;1.73;;
17151;SDS011;8691;50.828;4.700;2023-07-31T09:34:06;2.50;;;1.93;;
17151;SDS011;8691;50.828;4.700;2023-07-31T09:36:39;3.17;;;2.03;;
17151;SDS011;8691;50.828;4.700;2023-07-31T09:39:03;3.65;;;2.00;;
17151;SDS011;8691;50.828;4.700;2023-07-31T09:41:36;6.67;;;3.07;;
17151;SDS011;8691;50.828;4.700;2023-07-31T09:43:59;3.97;;;2.30;;
17151;SDS011;8691;50.828;4.700;2023-07-31T09:46:26;4.63;;;2.50;;
17151;SDS011;8691;50.828;4.700;2023-07-31T09:48:53;4.97;;;2.28;;
17151;SDS011;8691;50.828;4.700;2023-07-31T09:51:26;4.47;;;2.28;;
17151;SDS011;8691;50.828;4.700;2023-07-31T09:53:52;5.43;;;2.80;;
17151;SDS011;8691;50.828;4.700;2023-07-31T09:56:19;3.97;;;2.22;;
17151;SDS011;8691;50.828;4.700;2023-07-31T09:58:46;4.50;;;2.40;;
17151;SDS011;8691;50.828;4.700;2023-07-31T10:01:14;3.77;;;2.60;;
17151;SDS011;8691;50.828;4.700;2023-07-31T10:03:40;5.10;;;2.70;;
17151;SDS011;8691;50.828;4.700;2023-07-31T10:06:07;4.90;;;2.63;;
17151;SDS011;8691;50.828;4.700;2023-07-31T10:08:34;4.30;;;2.70;;
17151;SDS011;8691;50.828;4.700;2023-07-31T10:11:01;4.35;;;2.60;;
17151;SDS011;8691;50.828;4.700;2023-07-31T10:13:28;3.17;;;2.10;;
17151;SDS011;8691;50.828;4.700;2023-07-31T10:15:55;5.28;;;3.20;;
17151;SDS011;8691;50.828;4.700;2023-07-31T10:18:22;5.40;;;3.40;;
17151;SDS011;8691;50.828;4.700;2023-07-31T10:20:49;5.10;;;3.13;;
17151;SDS011;8691;50.828;4.700;2023-07-31T10:23:16;6.03;;;2.95;;
17151;SDS011;8691;50.828;4.700;2023-07-31T10:25:44;5.05;;;3.20;;
17151;SDS011;8691;50.828;4.700;2023-07-31T10:28:11;6.80;;;3.00;;
17151;SDS011;8691;50.828;4.700;2023-07-31T10:30:37;3.57;;;2.60;;
17151;SDS011;8691;50.828;4.700;2023-07-31T10:33:04;4.43;;;3.03;;
17151;SDS011;8691;50.828;4.700;2023-07-31T10:35:31;5.23;;;3.33;;
17151;SDS011;8691;50.828;4.700;2023-07-31T10:38:11;4.38;;;2.80;;
17151;SDS011;8691;50.828;4.700;2023-07-31T10:40:40;6.40;;;3.10;;
17151;SDS011;8691;50.828;4.700;2023-07-31T10:43:06;5.85;;;3.50;;
17151;SDS011;8691;50.828;4.700;2023-07-31T10:45:38;6.38;;;3.17;;
17151;SDS011;8691;50.828;4.700;2023-07-31T10:48:07;4.47;;;2.95;;
17151;SDS011;8691;50.828;4.700;2023-07-31T10:50:36;4.03;;;3.10;;
17151;SDS011;8691;50.828;4.700;2023-07-31T10:53:00;6.68;;;3.55;;
17151;SDS011;8691;50.828;4.700;2023-07-31T10:55:35;4.47;;;2.80;;
17151;SDS011;8691;50.828;4.700;2023-07-31T10:58:10;5.13;;;3.13;;
17151;SDS011;8691;50.828;4.700;2023-07-31T11:00:39;6.33;;;3.23;;
17151;SDS011;8691;50.828;4.700;2023-07-31T11:03:07;5.23;;;3.23;;
17151;SDS011;8691;50.828;4.700;2023-07-31T11:06:18;4.20;;;3.17;;
17151;SDS011;8691;50.828;4.700;2023-07-31T11:08:23;7.88;;;3.30;;
17151;SDS011;8691;50.828;4.700;2023-07-31T11:10:51;5.00;;;3.20;;
17151;SDS011;8691;50.828;4.700;2023-07-31T11:13:17;6.23;;;2.93;;
17151;SDS011;8691;50.828;4.700;2023-07-31T11:15:44;6.07;;;3.15;;
17151;SDS011;8691;50.828;4.700;2023-07-31T11:18:12;5.60;;;3.30;;
17151;SDS011;8691;50.828;4.700;2023-07-31T11:20:39;8.27;;;3.53;;
17151;SDS011;8691;50.828;4.700;2023-07-31T11:23:06;7.37;;;3.13;;
17151;SDS011;8691;50.828;4.700;2023-07-31T11:25:32;4.78;;;3.40;;
17151;SDS011;8691;50.828;4.700;2023-07-31T11:28:03;5.97;;;3.10;;
17151;SDS011;8691;50.828;4.700;2023-07-31T11:30:29;6.85;;;3.20;;
17151;SDS011;8691;50.828;4.700;2023-07-31T11:32:57;6.97;;;3.25;;
17151;SDS011;8691;50.828;4.700;2023-07-31T11:35:24;7.30;;;3.60;;
17151;SDS011;8691;50.828;4.700;2023-07-31T11:37:51;6.47;;;3.33;;
17151;SDS011;8691;50.828;4.700;2023-07-31T11:40:18;7.28;;;3.15;;
17151;SDS011;8691;50.828;4.700;2023-07-31T11:42:45;6.00;;;3.40;;
17151;SDS011;8691;50.828;4.700;2023-07-31T11:45:12;6.97;;;3.20;;
17151;SDS011;8691;50.828;4.700;2023-07-31T11:47:39;5.53;;;3.30;;
17151;SDS011;8691;50.828;4.700;2023-07-31T11:50:06;5.70;;;3.30;;
17151;SDS011;8691;50.828;4.700;2023-07-31T11:52:34;6.53;;;3.40;;
17151;SDS011;8691;50.828;4.700;2023-07-31T11:55:00;6.80;;;3.42;;
17151;SDS011;8691;50.828;4.700;2023-07-31T11:57:26;5.93;;;3.17;;
17151;SDS011;8691;50.828;4.700;2023-07-31T11:59:53;5.80;;;3.07;;
17151;SDS011;8691;50.828;4.700;2023-07-31T12:02:20;6.70;;;2.97;;
17151;SDS011;8691;50.828;4.700;2023-07-31T12:04:47;8.53;;;3.23;;
17151;SDS011;8691;50.828;4.700;2023-07-31T12:07:14;6.10;;;3.00;;
17151;SDS011;8691;50.828;4.700;2023-07-31T12:09:50;6.87;;;3.10;;
17151;SDS011;8691;50.828;4.700;2023-07-31T12:12:26;5.18;;;3.03;;
17151;SDS011;8691;50.828;4.700;2023-07-31T12:14:49;5.37;;;2.80;;
17151;SDS011;8691;50.828;4.700;2023-07-31T12:17:16;5.20;;;2.40;;
17151;SDS011;8691;50.828;4.700;2023-07-31T12:19:42;7.38;;;2.90;;
17151;SDS011;8691;50.828;4.700;2023-07-31T12:22:13;5.13;;;3.10;;
17151;SDS011;8691;50.828;4.700;2023-07-31T12:24:39;5.68;;;3.10;;
17151;SDS011;8691;50.828;4.700;2023-07-31T12:27:10;5.03;;;2.88;;
17151;SDS011;8691;50.828;4.700;2023-07-31T12:29:36;4.77;;;2.90;;
17151;SDS011;8691;50.828;4.700;2023-07-31T12:32:02;5.95;;;3.00;;
17151;SDS011;8691;50.828;4.700;2023-07-31T12:34:29;4.65;;;3.20;;
17151;SDS011;8691;50.828;4.700;2023-07-31T12:36:56;6.80;;;3.43;;
17151;SDS011;8691;50.828;4.700;2023-07-31T12:39:23;5.18;;;2.90;;
17151;SDS011;8691;50.828;4.700;2023-07-31T12:41:50;6.83;;;3.23;;
17151;SDS011;8691;50.828;4.700;2023-07-31T12:44:16;6.10;;;3.30;;
17151;SDS011;8691;50.828;4.700;2023-07-31T12:46:44;6.82;;;3.20;;
17151;SDS011;8691;50.828;4.700;2023-07-31T12:49:11;5.90;;;3.30;;
17151;SDS011;8691;50.828;4.700;2023-07-31T12:51:38;5.33;;;2.93;;
17151;SDS011;8691;50.828;4.700;2023-07-31T12:54:05;7.45;;;3.30;;
17151;SDS011;8691;50.828;4.700;2023-07-31T12:56:32;4.88;;;3.03;;
17151;SDS011;8691;50.828;4.700;2023-07-31T12:58:59;8.67;;;3.93;;
17151;SDS011;8691;50.828;4.700;2023-07-31T13:01:26;6.38;;;4.00;;
17151;SDS011;8691;50.828;4.700;2023-07-31T13:03:53;9.57;;;3.50;;
17151;SDS011;8691;50.828;4.700;2023-07-31T13:06:20;6.50;;;3.75;;
17151;SDS011;8691;50.828;4.700;2023-07-31T13:08:46;7.63;;;3.60;;
17151;SDS011;8691;50.828;4.700;2023-07-31T13:11:13;6.07;;;3.58;;
17151;SDS011;8691;50.828;4.700;2023-07-31T13:13:40;5.45;;;3.58;;
17151;SDS011;8691;50.828;4.700;2023-07-31T13:16:08;7.07;;;3.58;;
17151;SDS011;8691;50.828;4.700;2023-07-31T13:18:35;7.53;;;3.25;;
17151;SDS011;8691;50.828;4.700;2023-07-31T13:21:02;5.63;;;3.17;;
17151;SDS011;8691;50.828;4.700;2023-07-31T13:23:29;6.90;;;3.40;;
17151;SDS011;8691;50.828;4.700;2023-07-31T13:25:56;3.95;;;2.90;;
17151;SDS011;8691;50.828;4.700;2023-07-31T13:28:23;5.70;;;3.07;;
17151;SDS011;8691;50.828;4.700;2023-07-31T13:30:51;5.20;;;2.97;;
17151;SDS011;8691;50.828;4.700;2023-07-31T13:33:18;4.78;;;3.08;;
17151;SDS011;8691;50.828;4.700;2023-07-31T13:35:44;4.40;;;2.80;;
17151;SDS011;8691;50.828;4.700;2023-07-31T13:38:11;4.20;;;2.70;;
17151;SDS011;8691;50.828;4.700;2023-07-31T13:40:38;5.03;;;2.83;;
17151;SDS011;8691;50.828;4.700;2023-07-31T13:43:05;5.00;;;3.00;;
17151;SDS011;8691;50.828;4.700;2023-07-31T13:45:32;6.05;;;2.58;;
17151;SDS011;8691;50.828;4.700;2023-07-31T13:48:00;4.40;;;2.70;;
17151;SDS011;8691;50.828;4.700;2023-07-31T13:50:27;4.40;;;2.77;;
17151;SDS011;8691;50.828;4.700;2023-07-31T13:52:53;3.83;;;2.17;;
17151;SDS011;8691;50.828;4.700;2023-07-31T13:55:20;3.62;;;2.70;;
17151;SDS011;8691;50.828;4.700;2023-07-31T13:57:47;5.95;;;2.75;;
17151;SDS011;8691;50.828;4.700;2023-07-31T14:00:14;5.25;;;2.80;;
17151;SDS011;8691;50.828;4.700;2023-07-31T14:02:41;4.80;;;2.20;;
17151;SDS011;8691;50.828;4.700;2023-07-31T14:05:08;3.57;;;2.33;;
17151;SDS011;8691;50.828;4.700;2023-07-31T14:07:36;4.15;;;2.50;;
17151;SDS011;8691;50.828;4.700;2023-07-31T14:10:03;3.97;;;2.30;;
17151;SDS011;8691;50.828;4.700;2023-07-31T14:12:30;4.50;;;2.30;;
17151;SDS011;8691;50.828;4.700;2023-07-31T14:14:57;3.57;;;2.30;;
17151;SDS011;8691;50.828;4.700;2023-07-31T14:17:25;3.12;;;2.00;;
17151;SDS011;8691;50.828;4.700;2023-07-31T14:19:51;3.30;;;2.30;;
17151;SDS011;8691;50.828;4.700;2023-07-31T14:22:31;2.95;;;2.10;;
17151;SDS011;8691;50.828;4.700;2023-07-31T14:24:54;3.80;;;2.40;;
17151;SDS011;8691;50.828;4.700;2023-07-31T14:27:21;3.00;;;1.60;;
17151;SDS011;8691;50.828;4.700;2023-07-31T14:29:48;3.22;;;2.20;;
17151;SDS011;8691;50.828;4.700;2023-07-31T14:32:14;2.70;;;2.20;;
17151;SDS011;8691;50.828;4.700;2023-07-31T14:34:41;3.00;;;2.60;;
17151;SDS011;8691;50.828;4.700;2023-07-31T14:37:08;3.80;;;2.10;;
17151;SDS011;8691;50.828;4.700;2023-07-31T14:39:35;3.00;;;2.00;;
17151;SDS011;8691;50.828;4.700;2023-07-31T14:42:02;3.93;;;2.20;;
17151;SDS011;8691;50.828;4.700;2023-07-31T14:44:29;2.42;;;1.90;;
17151;SDS011;8691;50.828;4.700;2023-07-31T14:46:56;2.53;;;1.80;;
17151;SDS011;8691;50.828;4.700;2023-07-31T14:49:23;2.75;;;1.83;;
17151;SDS011;8691;50.828;4.700;2023-07-31T14:51:50;2.45;;;1.85;;
17151;SDS011;8691;50.828;4.700;2023-07-31T14:54:17;2.35;;;1.80;;
17151;SDS011;8691;50.828;4.700;2023-07-31T14:56:44;2.72;;;1.70;;
17151;SDS011;8691;50.828;4.700;2023-07-31T14:59:11;2.78;;;1.65;;
17151;SDS011;8691;50.828;4.700;2023-07-31T15:01:39;2.90;;;1.63;;
17151;SDS011;8691;50.828;4.700;2023-07-31T15:04:07;2.50;;;1.60;;
17151;SDS011;8691;50.828;4.700;2023-07-31T15:06:34;3.60;;;1.50;;
17151;SDS011;8691;50.828;4.700;2023-07-31T15:09:01;2.20;;;1.60;;